Time,TemperatureF,DewpointF,PressureIn,WindDirection,WindDirectionDegrees,WindSpeedMPH,WindSpeedGustMPH,Humidity,HourlyPrecipIn,Conditions,Clouds,dailyrainin,SoftwareType,DateUTC
2013-02-21 00:14:00,38.2,17.0,30.11,NE,43,0.0,2.0,43,0.00,,,0.02,weatherlink.com 1.10,2013-02-21 05:14:00,
2013-02-21 00:29:00,37.7,17.0,30.12,SE,129,1.0,2.0,44,0.00,,,0.02,weatherlink.com 1.10,2013-02-21 05:29:00,
2013-02-21 00:44:00,37.3,17.0,30.12,SE,129,0.0,1.0,44,0.00,,,0.02,weatherlink.com 1.10,2013-02-21 05:44:00,
2013-02-21 00:59:00,36.6,17.0,30.13,SE,129,0.0,2.0,45,0.00,,,0.02,weatherlink.com 1.10,2013-02-21 05:59:00,
2013-02-21 01:14:00,35.8,16.0,30.14,SE,129,0.0,0.0,45,0.00,,,0.02,weatherlink.com 1.10,2013-02-21 06:14:00,
2013-02-21 01:29:00,34.5,16.0,30.14,SE,129,0.0,0.0,48,0.00,,,0.02,weatherlink.com 1.10,2013-02-21 06:29:00,
2013-02-21 01:44:00,33.5,19.0,30.13,SE,129,0.0,0.0,55,0.00,,,0.02,weatherlink.com 1.10,2013-02-21 06:44:00,
2013-02-21 01:59:00,32.6,20.0,30.13,SE,129,0.0,0.0,59,0.00,,,0.00,weatherlink.com 1.10,2013-02-21 06:59:00,
2013-02-21 02:14:00,31.9,19.0,30.13,SE,129,0.0,0.0,59,0.00,,,0.00,weatherlink.com 1.10,2013-02-21 07:14:00,
2013-02-21 02:29:00,31.4,19.0,30.13,SE,129,0.0,0.0,61,0.00,,,0.00,weatherlink.com 1.10,2013-02-21 07:29:00,
2013-02-21 02:44:00,31.1,20.0,30.13,SE,129,0.0,0.0,64,0.00,,,0.00,weatherlink.com 1.10,2013-02-21 07:44:00,
2013-02-21 02:59:00,31.4,19.0,30.13,SE,129,0.0,0.0,60,0.00,,,0.00,weatherlink.com 1.10,2013-02-21 07:59:00,
2013-02-21 03:14:00,31.9,21.0,30.14,SE,129,0.0,1.0,64,0.00,,,0.00,weatherlink.com 1.10,2013-02-21 08:14:00,
2013-02-21 03:29:00,31.7,20.0,30.15,SE,129,0.0,0.0,61,0.00,,,0.00,weatherlink.com 1.10,2013-02-21 08:29:00,
2013-02-21 03:44:00,31.2,19.0,30.15,SE,129,0.0,0.0,62,0.00,,,0.00,weatherlink.com 1.10,2013-02-21 08:44:00,
2013-02-21 03:59:00,30.4,20.0,30.15,SE,129,0.0,0.0,66,0.00,,,0.00,weatherlink.com 1.10,2013-02-21 08:59:00,
2013-02-21 04:14:00,29.7,20.0,30.14,SE,129,0.0,0.0,68,0.00,,,0.00,weatherlink.com 1.10,2013-02-21 09:14:00,
2013-02-21 04:29:00,29.6,21.0,30.14,SE,129,0.0,0.0,69,0.00,,,0.00,weatherlink.com 1.10,2013-02-21 09:29:00,
2013-02-21 04:44:00,29.5,19.0,30.15,SE,129,0.0,1.0,66,0.00,,,0.00,weatherlink.com 1.10,2013-02-21 09:44:00,
2013-02-21 04:59:00,30.2,18.0,30.15,East,83,0.0,2.0,61,0.00,,,0.00,weatherlink.com 1.10,2013-02-21 09:59:00,
2013-02-21 05:14:00,30.8,18.0,30.16,ENE,71,0.0,1.0,59,0.00,,,0.00,weatherlink.com 1.10,2013-02-21 10:14:00,
2013-02-21 05:29:00,30.8,17.0,30.16,ENE,71,0.0,0.0,58,0.00,,,0.00,weatherlink.com 1.10,2013-02-21 10:29:00,
2013-02-21 05:44:00,30.4,18.0,30.17,ENE,71,0.0,1.0,60,0.00,,,0.00,weatherlink.com 1.10,2013-02-21 10:44:00,
2013-02-21 05:59:00,30.2,20.0,30.18,ENE,71,0.0,0.0,67,0.00,,,0.00,weatherlink.com 1.10,2013-02-21 10:59:00,
2013-02-21 06:14:00,29.8,20.0,30.18,ENE,71,0.0,0.0,66,0.00,,,0.00,weatherlink.com 1.10,2013-02-21 11:14:00,
2013-02-21 06:29:00,29.3,20.0,30.17,ENE,71,0.0,0.0,68,0.00,,,0.00,weatherlink.com 1.10,2013-02-21 11:29:00,
2013-02-21 06:44:00,28.9,20.0,30.18,ENE,71,0.0,0.0,68,0.00,,,0.00,weatherlink.com 1.10,2013-02-21 11:44:00,
2013-02-21 06:59:00,28.7,19.0,30.19,ENE,71,0.0,0.0,67,0.00,,,0.00,weatherlink.com 1.10,2013-02-21 11:59:00,
2013-02-21 07:14:00,28.7,20.0,30.20,ENE,71,0.0,1.0,70,0.00,,,0.00,weatherlink.com 1.10,2013-02-21 12:14:00,
2013-02-21 07:29:00,28.5,21.0,30.20,ENE,71,0.0,0.0,73,0.00,,,0.00,weatherlink.com 1.10,2013-02-21 12:29:00,
2013-02-21 07:44:00,28.8,20.0,30.20,ENE,71,0.0,0.0,70,0.00,,,0.00,weatherlink.com 1.10,2013-02-21 12:44:00,
2013-02-21 07:59:00,30.3,19.0,30.20,ENE,63,0.0,3.0,64,0.00,,,0.00,weatherlink.com 1.10,2013-02-21 12:59:00,
2013-02-21 08:14:00,31.9,20.0,30.21,ENE,65,2.0,2.0,61,0.00,,,0.00,weatherlink.com 1.10,2013-02-21 13:14:00,
2013-02-21 08:29:00,34.4,20.0,30.22,ENE,70,1.0,2.0,56,0.00,,,0.00,weatherlink.com 1.10,2013-02-21 13:29:00,
2013-02-21 08:45:00,37.4,19.0,30.23,ESE,106,0.0,3.0,48,0.00,,,0.00,weatherlink.com 1.10,2013-02-21 13:45:00,
2013-02-21 09:00:00,38.7,20.0,30.23,NE,34,4.0,5.0,47,0.00,,,0.00,weatherlink.com 1.10,2013-02-21 14:00:00,
2013-02-21 09:15:00,38.9,19.0,30.23,ESE,118,2.0,6.0,44,0.00,,,0.00,weatherlink.com 1.10,2013-02-21 14:15:00,
2013-02-21 09:30:00,39.5,20.0,30.22,East,95,0.0,5.0,45,0.00,,,0.00,weatherlink.com 1.10,2013-02-21 14:30:00,
2013-02-21 09:45:00,40.8,20.0,30.22,East,89,0.0,6.0,43,0.00,,,0.00,weatherlink.com 1.10,2013-02-21 14:45:00,
2013-02-21 10:00:00,41.5,20.0,30.22,SSW,207,0.0,6.0,42,0.00,,,0.00,weatherlink.com 1.10,2013-02-21 15:00:00,
2013-02-21 10:15:00,42.4,21.0,30.22,NNE,32,0.0,3.0,42,0.00,,,0.00,weatherlink.com 1.10,2013-02-21 15:15:00,
2013-02-21 10:30:00,42.9,21.0,30.22,NNE,13,1.0,3.0,42,0.01,,,0.01,weatherlink.com 1.10,2013-02-21 15:30:00,
2013-02-21 10:45:00,44.0,21.0,30.22,ESE,115,1.0,3.0,40,0.01,,,0.01,weatherlink.com 1.10,2013-02-21 15:45:00,
2013-02-21 11:00:00,45.3,21.0,30.21,SE,136,1.0,3.0,39,0.01,,,0.01,weatherlink.com 1.10,2013-02-21 16:00:00,
2013-02-21 11:15:00,46.1,22.0,30.21,WNW,291,0.0,3.0,39,0.01,,,0.01,weatherlink.com 1.10,2013-02-21 16:15:00,
2013-02-21 11:30:00,46.6,21.0,30.20,SSE,151,0.0,3.0,37,0.00,,,0.01,weatherlink.com 1.10,2013-02-21 16:30:00,
2013-02-21 11:45:00,47.9,21.0,30.20,South,170,1.0,3.0,35,0.00,,,0.01,weatherlink.com 1.10,2013-02-21 16:45:00,
2013-02-21 12:00:00,50.3,23.0,30.19,ESE,109,1.0,2.0,34,0.00,,,0.01,weatherlink.com 1.10,2013-02-21 17:00:00,
2013-02-21 12:15:00,50.7,23.0,30.19,ESE,123,1.0,5.0,34,0.00,,,0.01,weatherlink.com 1.10,2013-02-21 17:15:00,
2013-02-21 12:30:00,51.9,23.0,30.18,SW,218,2.0,4.0,32,0.00,,,0.01,weatherlink.com 1.10,2013-02-21 17:30:00,
2013-02-21 12:45:00,52.3,25.0,30.17,SE,132,1.0,5.0,34,0.00,,,0.01,weatherlink.com 1.10,2013-02-21 17:45:00,
2013-02-21 13:00:00,53.1,22.0,30.15,SE,126,2.0,7.0,30,0.00,,,0.01,weatherlink.com 1.10,2013-02-21 18:00:00,
2013-02-21 13:15:00,53.3,25.0,30.15,SE,136,4.0,6.0,33,0.00,,,0.01,weatherlink.com 1.10,2013-02-21 18:15:00,
2013-02-21 13:30:00,54.3,23.0,30.14,SE,134,2.0,6.0,30,0.00,,,0.01,weatherlink.com 1.10,2013-02-21 18:30:00,
2013-02-21 13:45:00,54.5,24.0,30.13,SW,229,1.0,3.0,31,0.00,,,0.01,weatherlink.com 1.10,2013-02-21 18:45:00,
2013-02-21 14:00:00,55.4,25.0,30.11,SE,139,5.0,6.0,31,0.00,,,0.01,weatherlink.com 1.10,2013-02-21 19:00:00,
2013-02-21 14:16:00,55.8,23.0,30.10,SW,235,2.0,5.0,28,0.00,,,0.01,weatherlink.com 1.10,2013-02-21 19:16:00,
2013-02-21 14:31:00,55.9,22.0,30.10,SSE,158,2.0,3.0,27,0.00,,,0.01,weatherlink.com 1.10,2013-02-21 19:31:00,
2013-02-21 14:46:00,56.5,22.0,30.10,ESE,105,1.0,3.0,26,0.00,,,0.01,weatherlink.com 1.10,2013-02-21 19:46:00,
2013-02-21 15:01:00,56.9,25.0,30.10,SE,140,2.0,4.0,29,0.00,,,0.01,weatherlink.com 1.10,2013-02-21 20:01:00,
2013-02-21 15:16:00,57.7,23.0,30.10,WSW,250,2.0,4.0,26,0.00,,,0.01,weatherlink.com 1.10,2013-02-21 20:16:00,
2013-02-21 15:31:00,57.7,25.0,30.11,ENE,71,1.0,3.0,28,0.01,,,0.02,weatherlink.com 1.10,2013-02-21 20:31:00,
2013-02-21 15:46:00,57.6,24.0,30.11,SE,125,4.0,5.0,27,0.01,,,0.02,weatherlink.com 1.10,2013-02-21 20:46:00,
2013-02-21 16:01:00,57.1,23.0,30.13,SE,139,1.0,3.0,27,0.01,,,0.02,weatherlink.com 1.10,2013-02-21 21:01:00,
2013-02-21 16:16:00,57.0,24.0,30.12,SE,136,1.0,4.0,28,0.01,,,0.02,weatherlink.com 1.10,2013-02-21 21:16:00,
2013-02-21 16:31:00,56.8,25.0,30.11,SE,136,1.0,2.0,29,0.00,,,0.02,weatherlink.com 1.10,2013-02-21 21:31:00,
2013-02-21 16:46:00,56.6,28.0,30.11,ESE,115,0.0,3.0,34,0.00,,,0.02,weatherlink.com 1.10,2013-02-21 21:46:00,
2013-02-21 17:01:00,55.6,28.0,30.10,ESE,102,2.0,3.0,35,0.00,,,0.02,weatherlink.com 1.10,2013-02-21 22:01:00,
2013-02-21 17:16:00,54.8,27.0,30.11,ESE,121,1.0,3.0,34,0.00,,,0.02,weatherlink.com 1.10,2013-02-21 22:16:00,
2013-02-21 17:31:00,54.4,28.0,30.11,ESE,121,0.0,2.0,37,0.00,,,0.02,weatherlink.com 1.10,2013-02-21 22:31:00,
2013-02-21 17:46:00,53.8,29.0,30.12,ESE,121,0.0,1.0,39,0.00,,,0.02,weatherlink.com 1.10,2013-02-21 22:46:00,
2013-02-21 18:01:00,53.0,28.0,30.12,NE,51,0.0,3.0,38,0.00,,,0.02,weatherlink.com 1.10,2013-02-21 23:01:00,
2013-02-21 18:16:00,52.4,28.0,30.13,NE,51,0.0,1.0,39,0.00,,,0.02,weatherlink.com 1.10,2013-02-21 23:16:00,
2013-02-21 18:31:00,51.7,28.0,30.13,NE,51,0.0,0.0,40,0.00,,,0.02,weatherlink.com 1.10,2013-02-21 23:31:00,
2013-02-21 18:46:00,50.7,27.0,30.14,NE,51,0.0,2.0,40,0.00,,,0.02,weatherlink.com 1.10,2013-02-21 23:46:00,
2013-02-21 19:01:00,49.8,29.0,30.13,NE,51,0.0,1.0,45,0.00,,,0.02,weatherlink.com 1.10,2013-02-22 00:01:00,
2013-02-21 19:16:00,48.7,29.0,30.14,NE,51,0.0,0.0,47,0.00,,,0.02,weatherlink.com 1.10,2013-02-22 00:16:00,
2013-02-21 19:31:00,47.8,31.0,30.13,NE,51,0.0,1.0,52,0.00,,,0.02,weatherlink.com 1.10,2013-02-22 00:31:00,
2013-02-21 19:46:00,47.2,30.0,30.14,NE,51,0.0,2.0,51,0.00,,,0.02,weatherlink.com 1.10,2013-02-22 00:46:00,
2013-02-21 20:01:00,46.7,30.0,30.13,NE,51,0.0,0.0,53,0.00,,,0.02,weatherlink.com 1.10,2013-02-22 01:01:00,
2013-02-21 20:16:00,46.1,31.0,30.14,NE,51,0.0,1.0,57,0.00,,,0.02,weatherlink.com 1.10,2013-02-22 01:16:00,
2013-02-21 20:31:00,45.8,30.0,30.13,NE,51,0.0,0.0,54,0.00,,,0.02,weatherlink.com 1.10,2013-02-22 01:31:00,
2013-02-21 20:46:00,45.4,32.0,30.14,NE,51,0.0,1.0,61,0.00,,,0.02,weatherlink.com 1.10,2013-02-22 01:46:00,
2013-02-21 21:01:00,45.0,30.0,30.15,NE,51,0.0,1.0,56,0.00,,,0.02,weatherlink.com 1.10,2013-02-22 02:01:00,
2013-02-21 21:16:00,45.0,31.0,30.14,NE,51,0.0,0.0,59,0.00,,,0.02,weatherlink.com 1.10,2013-02-22 02:16:00,
2013-02-21 21:31:00,45.6,32.0,30.16,NE,51,0.0,1.0,59,0.00,,,0.02,weatherlink.com 1.10,2013-02-22 02:31:00,
2013-02-21 21:46:00,45.6,33.0,30.18,NE,51,0.0,1.0,61,0.00,,,0.02,weatherlink.com 1.10,2013-02-22 02:46:00,
2013-02-21 22:01:00,45.6,31.0,30.20,NE,51,0.0,0.0,58,0.00,,,0.02,weatherlink.com 1.10,2013-02-22 03:01:00,
2013-02-21 22:16:00,45.6,31.0,30.21,NE,51,0.0,0.0,57,0.00,,,0.02,weatherlink.com 1.10,2013-02-22 03:16:00,
2013-02-21 22:31:00,45.8,32.0,30.20,NE,51,0.0,0.0,60,0.00,,,0.02,weatherlink.com 1.10,2013-02-22 03:31:00,
2013-02-21 22:46:00,45.9,36.0,30.18,NE,51,0.0,1.0,68,0.00,,,0.02,weatherlink.com 1.10,2013-02-22 03:46:00,
2013-02-21 23:01:00,45.9,33.0,30.20,NE,51,0.0,1.0,62,0.00,,,0.02,weatherlink.com 1.10,2013-02-22 04:01:00,
2013-02-21 23:16:00,46.0,33.0,30.20,NE,51,0.0,0.0,61,0.00,,,0.02,weatherlink.com 1.10,2013-02-22 04:16:00,
2013-02-21 23:31:00,46.4,34.0,30.22,NE,51,0.0,1.0,63,0.00,,,0.02,weatherlink.com 1.10,2013-02-22 04:31:00,
2013-02-21 23:46:00,46.3,32.0,30.22,NE,51,0.0,1.0,57,0.00,,,0.02,weatherlink.com 1.10,2013-02-22 04:46:00,